createdAt,value
2019-05-06T00:00:59.602Z,4.70
2019-05-06T00:01:56.628Z,5.40
2019-05-06T00:02:56.618Z,5.60
2019-05-06T00:03:56.617Z,4.60
2019-05-06T00:04:56.611Z,5.60
2019-05-06T00:05:56.586Z,7.60
2019-05-06T00:06:56.575Z,7.60
2019-05-06T00:07:56.566Z,6.10
2019-05-06T00:08:56.558Z,6.90
2019-05-06T00:09:56.542Z,6.00
2019-05-06T00:10:56.538Z,4.10
2019-05-06T00:11:56.522Z,5.00
2019-05-06T00:12:56.511Z,4.50
2019-05-06T00:13:56.507Z,6.40
2019-05-06T00:14:56.498Z,4.40
2019-05-06T00:15:56.492Z,7.50
2019-05-06T00:16:58.680Z,5.60
2019-05-06T00:17:56.461Z,5.70
2019-05-06T00:18:56.447Z,5.80
2019-05-06T00:19:57.109Z,7.30
2019-05-06T00:20:57.622Z,4.40
2019-05-06T00:21:56.426Z,6.00
2019-05-06T00:22:56.406Z,5.90
2019-05-06T00:23:56.397Z,6.80
2019-05-06T00:24:56.385Z,10.20
2019-05-06T00:25:56.377Z,6.20
2019-05-06T00:26:57.581Z,6.50
2019-05-06T00:27:56.355Z,7.10
2019-05-06T00:28:56.349Z,7.40
2019-05-06T00:29:56.332Z,6.00
2019-05-06T00:31:09.508Z,5.30
2019-05-06T00:31:57.311Z,6.30
2019-05-06T00:32:56.300Z,7.10
2019-05-06T00:33:56.290Z,4.70
2019-05-06T00:34:56.278Z,5.60
2019-05-06T00:35:56.273Z,7.00
2019-05-06T00:36:56.256Z,8.20
2019-05-06T00:37:56.246Z,7.60
2019-05-06T00:38:56.240Z,7.70
2019-05-06T00:39:56.224Z,8.70
2019-05-06T00:40:56.215Z,6.50
2019-05-06T00:41:56.207Z,8.00
2019-05-06T00:42:56.195Z,7.90
2019-05-06T00:43:56.186Z,8.30
2019-05-06T00:44:56.176Z,6.40
2019-05-06T00:45:56.161Z,8.40
2019-05-06T00:46:56.149Z,6.20
2019-05-06T00:47:56.141Z,8.00
2019-05-06T00:48:56.128Z,9.70
2019-05-06T00:49:56.117Z,6.40
2019-05-06T00:50:56.109Z,6.50
2019-05-06T00:51:56.114Z,5.70
2019-05-06T00:52:56.086Z,7.90
2019-05-06T00:53:56.077Z,8.30
2019-05-06T00:54:56.065Z,5.50
2019-05-06T00:55:56.062Z,5.40
2019-05-06T00:56:56.045Z,7.00
2019-05-06T00:57:56.031Z,7.90
2019-05-06T00:58:56.023Z,6.10
2019-05-06T00:59:56.015Z,8.20
2019-05-06T01:00:56.000Z,6.70
2019-05-06T01:01:55.993Z,7.80
2019-05-06T01:02:55.981Z,5.80
2019-05-06T01:03:55.970Z,6.50
2019-05-06T01:04:55.958Z,6.60
2019-05-06T01:05:55.947Z,9.50
2019-05-06T01:06:55.944Z,8.00
2019-05-06T01:07:55.930Z,6.70
2019-05-06T01:08:55.915Z,9.20
2019-05-06T01:09:55.905Z,8.90
2019-05-06T01:10:55.897Z,5.60
2019-05-06T01:11:55.884Z,4.50
2019-05-06T01:12:55.877Z,6.90
2019-05-06T01:13:55.866Z,10.20
2019-05-06T01:14:55.852Z,7.90
2019-05-06T01:15:55.840Z,7.40
2019-05-06T01:16:55.827Z,8.10
2019-05-06T01:17:55.821Z,8.90
2019-05-06T01:18:55.810Z,6.40
2019-05-06T01:19:55.799Z,7.00
2019-05-06T01:20:55.788Z,7.70
2019-05-06T01:21:55.779Z,8.80
2019-05-06T01:22:55.767Z,6.70
2019-05-06T01:23:55.755Z,7.30
2019-05-06T01:24:55.926Z,8.20
2019-05-06T01:25:55.742Z,5.70
2019-05-06T01:26:55.723Z,7.30
2019-05-06T01:27:55.713Z,6.70
2019-05-06T01:28:55.702Z,6.00
2019-05-06T01:29:55.694Z,6.50
2019-05-06T01:30:55.682Z,8.30
2019-05-06T01:31:55.670Z,6.80
2019-05-06T01:32:55.661Z,4.70
2019-05-06T01:33:55.659Z,8.20
2019-05-06T01:34:55.640Z,8.00
2019-05-06T01:35:55.626Z,7.00
2019-05-06T01:36:55.621Z,7.40
2019-05-06T01:37:55.608Z,8.50
2019-05-06T01:38:55.597Z,9.60
2019-05-06T01:39:55.612Z,6.10
2019-05-06T01:40:55.568Z,6.10
2019-05-06T01:41:55.563Z,5.60
2019-05-06T01:42:55.557Z,5.90
2019-05-06T01:43:55.543Z,7.10
2019-05-06T01:44:55.530Z,7.10
2019-05-06T01:45:55.520Z,7.60
2019-05-06T01:46:55.513Z,5.70
2019-05-06T01:47:55.498Z,5.20
2019-05-06T01:48:55.482Z,7.50
2019-05-06T01:49:55.479Z,6.40
2019-05-06T01:50:55.468Z,5.50
2019-05-06T01:51:55.460Z,9.60
2019-05-06T01:52:55.444Z,6.40
2019-05-06T01:53:55.434Z,6.30
2019-05-06T01:54:55.425Z,7.30
2019-05-06T01:55:55.412Z,5.80
2019-05-06T01:56:55.403Z,5.10
2019-05-06T01:57:55.391Z,5.40
2019-05-06T01:58:55.386Z,7.50
2019-05-06T01:59:55.373Z,4.60
2019-05-06T02:00:55.360Z,8.10
2019-05-06T02:02:00.771Z,6.60
2019-05-06T02:02:56.336Z,7.00
2019-05-06T02:03:55.330Z,6.50
2019-05-06T02:04:55.321Z,4.10
2019-05-06T02:05:55.309Z,5.50
2019-05-06T02:06:55.295Z,5.20
2019-05-06T02:07:55.288Z,8.40
2019-05-06T02:08:55.273Z,4.50
2019-05-06T02:09:55.263Z,5.90
2019-05-06T02:10:55.266Z,9.80
2019-05-06T02:11:55.248Z,8.30
2019-05-06T02:12:55.233Z,5.60
2019-05-06T02:13:55.219Z,7.10
2019-05-06T02:14:55.210Z,8.30
2019-05-06T02:15:55.199Z,4.50
2019-05-06T02:16:55.187Z,7.50
2019-05-06T02:17:55.233Z,4.80
2019-05-06T02:18:55.170Z,5.40
2019-05-06T02:19:55.157Z,5.70
2019-05-06T02:20:55.144Z,5.80
2019-05-06T02:21:55.135Z,9.20
2019-05-06T02:22:55.128Z,5.20
2019-05-06T02:23:55.113Z,6.20
2019-05-06T02:24:55.100Z,6.30
2019-05-06T02:25:55.093Z,8.10
2019-05-06T02:26:55.082Z,4.90
2019-05-06T02:27:55.069Z,8.70
2019-05-06T02:28:55.066Z,7.70
2019-05-06T02:29:55.048Z,7.70
2019-05-06T02:30:55.047Z,5.40
2019-05-06T02:32:14.775Z,6.60
2019-05-06T02:32:56.020Z,5.90
2019-05-06T02:33:56.087Z,8.80
2019-05-06T02:34:55.018Z,4.90
2019-05-06T02:35:55.161Z,6.40
2019-05-06T02:36:55.312Z,5.10
2019-05-06T02:37:55.298Z,5.20
2019-05-06T02:38:55.892Z,6.60
2019-05-06T02:39:54.943Z,6.60
2019-05-06T02:40:54.936Z,7.50
2019-05-06T02:41:55.242Z,9.30
2019-05-06T02:42:55.389Z,5.60
2019-05-06T02:43:54.900Z,6.60
2019-05-06T02:44:54.891Z,4.90
2019-05-06T02:45:54.877Z,8.00
2019-05-06T02:46:54.870Z,5.90
2019-05-06T02:47:54.858Z,5.90
2019-05-06T02:48:54.851Z,10.20
2019-05-06T02:49:54.844Z,7.20
2019-05-06T02:50:54.824Z,7.60
2019-05-06T02:51:54.829Z,7.30
2019-05-06T02:52:54.805Z,7.70
2019-05-06T02:53:54.796Z,6.20
2019-05-06T02:54:54.797Z,7.20
2019-05-06T02:55:54.775Z,7.20
2019-05-06T02:56:54.762Z,6.50
2019-05-06T02:57:54.750Z,5.70
2019-05-06T02:58:54.741Z,7.60
2019-05-06T02:59:55.550Z,8.70
2019-05-06T03:00:54.719Z,6.70
2019-05-06T03:01:54.708Z,8.30
2019-05-06T03:02:54.701Z,8.40
2019-05-06T03:03:54.685Z,7.90
2019-05-06T03:04:54.674Z,9.10
2019-05-06T03:05:54.664Z,5.10
2019-05-06T03:06:54.679Z,10.40
2019-05-06T03:07:57.524Z,6.90
2019-05-06T03:08:54.632Z,6.00
2019-05-06T03:09:54.662Z,9.00
2019-05-06T03:10:54.615Z,8.00
2019-05-06T03:11:54.607Z,5.50
2019-05-06T03:12:54.595Z,6.80
2019-05-06T03:13:54.588Z,6.10
2019-05-06T03:14:54.573Z,7.80
2019-05-06T03:15:54.607Z,7.10
2019-05-06T03:16:54.547Z,9.30
2019-05-06T03:17:55.363Z,7.80
2019-05-06T03:18:54.529Z,5.10
2019-05-06T03:19:54.521Z,5.70
2019-05-06T03:20:54.508Z,5.90
2019-05-06T03:21:54.864Z,8.60
2019-05-06T03:22:54.661Z,6.50
2019-05-06T03:23:54.570Z,5.60
2019-05-06T03:24:54.821Z,7.70
2019-05-06T03:25:54.451Z,7.00
2019-05-06T03:26:57.035Z,8.00
2019-05-06T03:27:54.431Z,6.10
2019-05-06T03:28:54.422Z,12.70
2019-05-06T03:29:54.418Z,5.40
2019-05-06T03:30:56.719Z,6.90
2019-05-06T03:31:56.543Z,7.40
2019-05-06T03:33:30.260Z,6.80
2019-05-06T03:34:22.195Z,8.00
2019-05-06T03:35:16.308Z,5.60
2019-05-06T03:36:06.209Z,7.40
2019-05-06T03:36:56.695Z,5.30
2019-05-06T03:37:54.325Z,6.30
2019-05-06T03:38:54.315Z,7.70
2019-05-06T03:39:54.319Z,8.00
2019-05-06T03:40:54.295Z,6.70
2019-05-06T03:41:54.281Z,7.10
2019-05-06T03:42:54.274Z,7.40
2019-05-06T03:43:54.612Z,7.80
2019-05-06T03:44:54.259Z,7.30
2019-05-06T03:45:54.239Z,7.80
2019-05-06T03:46:54.266Z,7.30
2019-05-06T03:47:54.513Z,6.80
2019-05-06T03:48:54.210Z,8.50
2019-05-06T03:49:54.960Z,9.10
2019-05-06T03:50:55.986Z,9.70
2019-05-06T03:51:56.386Z,6.40
2019-05-06T03:52:56.513Z,11.70
2019-05-06T03:53:56.851Z,8.70
2019-05-06T03:54:54.144Z,7.20
2019-05-06T03:55:54.206Z,11.80
2019-05-06T03:56:54.124Z,15.80
2019-05-06T03:57:54.109Z,15.40
2019-05-06T03:58:54.102Z,14.60
2019-05-06T03:59:54.088Z,12.50
2019-05-06T04:00:54.074Z,16.90
2019-05-06T04:01:54.066Z,13.00
2019-05-06T04:02:54.117Z,12.70
2019-05-06T04:03:56.971Z,14.70
2019-05-06T04:04:56.714Z,12.10
2019-05-06T04:05:56.007Z,12.50
2019-05-06T04:06:54.042Z,8.80
2019-05-06T04:07:54.002Z,9.40
2019-05-06T04:08:53.992Z,9.00
2019-05-06T04:09:54.005Z,11.70
2019-05-06T04:10:54.072Z,9.00
2019-05-06T04:11:54.304Z,8.90
2019-05-06T04:12:54.197Z,8.90
2019-05-06T04:13:53.964Z,10.70
2019-05-06T04:14:54.361Z,10.90
2019-05-06T04:15:54.221Z,11.60
2019-05-06T04:16:53.909Z,10.50
2019-05-06T04:17:54.273Z,9.70
2019-05-06T04:18:54.263Z,9.10
2019-05-06T04:19:53.875Z,7.70
2019-05-06T04:20:53.903Z,10.90
2019-05-06T04:21:53.854Z,10.40
2019-05-06T04:22:53.845Z,9.80
2019-05-06T04:23:53.839Z,12.70
2019-05-06T04:24:54.085Z,12.10
2019-05-06T04:25:53.812Z,10.90
2019-05-06T04:26:53.805Z,10.00
2019-05-06T04:27:54.127Z,8.90
2019-05-06T04:28:53.780Z,12.70
2019-05-06T04:29:54.322Z,10.20
2019-05-06T04:30:54.886Z,8.30
2019-05-06T04:31:54.283Z,8.70
2019-05-06T04:32:53.734Z,10.30
2019-05-06T04:34:08.709Z,10.30
2019-05-06T04:34:54.716Z,9.30
2019-05-06T04:35:54.267Z,10.00
2019-05-06T04:36:53.731Z,10.50
2019-05-06T04:37:54.103Z,11.20
2019-05-06T04:38:54.231Z,9.20
2019-05-06T04:39:53.829Z,8.00
2019-05-06T04:40:54.232Z,8.90
2019-05-06T04:41:54.049Z,10.50
2019-05-06T04:42:53.658Z,7.10
2019-05-06T04:43:53.619Z,11.60
2019-05-06T04:44:53.610Z,10.20
2019-05-06T04:45:54.255Z,11.40
2019-05-06T04:46:54.492Z,12.50
2019-05-06T04:47:54.065Z,9.40
2019-05-06T04:48:53.980Z,11.40
2019-05-06T04:49:53.557Z,8.30
2019-05-06T04:50:53.912Z,7.90
2019-05-06T04:51:54.277Z,8.00
2019-05-06T04:52:53.716Z,7.70
2019-05-06T04:53:53.848Z,8.20
2019-05-06T04:54:53.561Z,9.60
2019-05-06T04:55:54.032Z,8.70
2019-05-06T04:56:53.830Z,9.50
2019-05-06T04:57:53.745Z,11.20
2019-05-06T04:58:54.011Z,8.00
2019-05-06T04:59:54.223Z,10.30
2019-05-06T05:00:53.451Z,11.20
2019-05-06T05:01:53.753Z,10.00
2019-05-06T05:02:54.941Z,10.70
2019-05-06T05:03:54.109Z,9.70
2019-05-06T05:04:53.408Z,10.80
2019-05-06T05:05:53.390Z,9.80
2019-05-06T05:06:53.395Z,8.10
2019-05-06T05:07:53.366Z,8.00
2019-05-06T05:08:53.439Z,11.70
2019-05-06T05:09:53.697Z,7.80
2019-05-06T05:10:53.338Z,10.20
2019-05-06T05:11:53.457Z,9.80
2019-05-06T05:12:53.317Z,9.00
2019-05-06T05:13:53.442Z,9.80
2019-05-06T05:14:53.290Z,10.80
2019-05-06T05:15:53.279Z,8.10
2019-05-06T05:16:53.272Z,8.00
2019-05-06T05:17:53.259Z,8.00
2019-05-06T05:18:53.252Z,6.00
2019-05-06T05:19:53.234Z,11.50
2019-05-06T05:20:53.226Z,10.50
2019-05-06T05:21:53.214Z,9.30
2019-05-06T05:22:53.208Z,8.50
2019-05-06T05:23:53.205Z,10.20
2019-05-06T05:24:53.182Z,10.00
2019-05-06T05:25:53.172Z,10.80
2019-05-06T05:26:53.160Z,10.60
2019-05-06T05:27:53.151Z,10.10
2019-05-06T05:28:53.315Z,8.60
2019-05-06T05:29:53.127Z,7.30
2019-05-06T05:30:53.118Z,8.80
2019-05-06T05:31:53.145Z,9.50
2019-05-06T05:32:53.108Z,10.40
2019-05-06T05:33:53.095Z,8.50
2019-05-06T05:34:53.114Z,9.20
2019-05-06T05:35:53.063Z,7.60
2019-05-06T05:36:53.053Z,10.90
2019-05-06T05:37:53.046Z,7.50
2019-05-06T05:38:53.031Z,7.40
2019-05-06T05:39:53.022Z,11.70
2019-05-06T05:40:53.009Z,8.60
2019-05-06T05:41:53.001Z,8.40
2019-05-06T05:42:52.992Z,6.90
2019-05-06T05:43:52.980Z,8.60
2019-05-06T05:44:52.967Z,10.40
2019-05-06T05:45:52.959Z,9.00
2019-05-06T05:46:52.945Z,7.00
2019-05-06T05:47:52.938Z,10.80
2019-05-06T05:48:52.927Z,8.00
2019-05-06T05:49:52.965Z,9.20
2019-05-06T05:50:52.908Z,7.00
2019-05-06T05:51:52.895Z,10.10
2019-05-06T05:52:52.893Z,8.00
2019-05-06T05:53:52.908Z,8.80
2019-05-06T05:54:55.495Z,7.10
2019-05-06T05:55:52.851Z,7.20
2019-05-06T05:56:53.077Z,6.90
2019-05-06T05:57:52.828Z,9.10
2019-05-06T05:58:53.535Z,8.80
2019-05-06T05:59:52.951Z,6.00
2019-05-06T06:00:52.798Z,7.60
2019-05-06T06:01:53.116Z,5.40
2019-05-06T06:02:53.084Z,7.00
2019-05-06T06:03:52.918Z,7.20
2019-05-06T06:04:57.196Z,5.60
2019-05-06T06:05:53.741Z,5.70
2019-05-06T06:06:52.728Z,6.70
2019-05-06T06:07:53.087Z,9.80
2019-05-06T06:08:52.713Z,6.00
2019-05-06T06:09:52.699Z,5.70
2019-05-06T06:10:52.688Z,6.20
2019-05-06T06:11:53.203Z,8.50
2019-05-06T06:12:52.854Z,5.30
2019-05-06T06:13:52.656Z,4.40
2019-05-06T06:14:55.762Z,6.70
2019-05-06T06:15:52.634Z,5.30
2019-05-06T06:16:52.774Z,6.30
2019-05-06T06:17:52.613Z,5.00
2019-05-06T06:18:52.600Z,4.70
2019-05-06T06:19:53.381Z,8.20
2019-05-06T06:20:52.842Z,8.30
2019-05-06T06:21:52.571Z,6.40
2019-05-06T06:22:52.560Z,4.20
2019-05-06T06:23:52.907Z,5.90
2019-05-06T06:24:52.679Z,5.10
2019-05-06T06:25:52.978Z,3.60
2019-05-06T06:26:52.515Z,5.30
2019-05-06T06:27:52.506Z,8.30
2019-05-06T06:28:52.495Z,6.10
2019-05-06T06:29:52.812Z,4.90
2019-05-06T06:30:52.479Z,4.90
2019-05-06T06:31:52.532Z,5.40
2019-05-06T06:32:52.868Z,5.10
2019-05-06T06:33:52.967Z,5.20
2019-05-06T06:35:07.145Z,3.50
2019-05-06T06:35:53.424Z,3.80
2019-05-06T06:36:52.653Z,3.10
2019-05-06T06:37:52.487Z,4.80
2019-05-06T06:38:52.795Z,5.80
2019-05-06T06:39:52.716Z,5.90
2019-05-06T06:40:55.506Z,3.20
2019-05-06T06:41:52.354Z,3.30
2019-05-06T06:42:52.590Z,3.40
2019-05-06T06:43:52.495Z,4.60
2019-05-06T06:44:52.321Z,3.80
2019-05-06T06:45:53.127Z,5.20
2019-05-06T06:46:52.539Z,4.00
2019-05-06T06:47:52.293Z,4.40
2019-05-06T06:48:52.715Z,3.70
2019-05-06T06:49:53.439Z,4.00
2019-05-06T06:50:52.376Z,5.60
2019-05-06T06:51:53.155Z,5.60
2019-05-06T06:52:52.582Z,4.40
2019-05-06T06:53:52.975Z,2.70
2019-05-06T06:54:52.770Z,5.10
2019-05-06T06:55:52.364Z,6.30
2019-05-06T06:57:05.591Z,4.00
2019-05-06T06:57:53.183Z,4.60
2019-05-06T06:58:52.515Z,5.90
2019-05-06T06:59:52.437Z,4.70
2019-05-06T07:00:53.298Z,3.60
2019-05-06T07:01:52.964Z,4.00
2019-05-06T07:02:52.524Z,3.80
2019-05-06T07:03:52.811Z,8.00
2019-05-06T07:04:52.638Z,5.10
2019-05-06T07:05:52.730Z,4.50
2019-05-06T07:06:53.122Z,4.20
2019-05-06T07:07:53.156Z,3.20
2019-05-06T07:08:52.062Z,5.00
2019-05-06T07:09:52.611Z,3.50
2019-05-06T07:10:52.507Z,4.60
2019-05-06T07:11:52.591Z,3.30
2019-05-06T07:12:53.262Z,3.70
2019-05-06T07:13:52.900Z,3.00
2019-05-06T07:14:52.375Z,3.90
2019-05-06T07:15:52.151Z,2.80
2019-05-06T07:16:53.349Z,4.60
2019-05-06T07:17:52.510Z,6.30
2019-05-06T07:18:52.620Z,2.90
2019-05-06T07:19:52.755Z,3.90
2019-05-06T07:20:52.579Z,4.90
2019-05-06T07:21:52.320Z,4.30
2019-05-06T07:22:53.025Z,4.00
2019-05-06T07:23:52.983Z,3.70
2019-05-06T07:24:52.766Z,3.80
2019-05-06T07:25:53.830Z,3.70
2019-05-06T07:26:52.458Z,4.50
2019-05-06T07:27:52.956Z,1.90
2019-05-06T07:28:52.654Z,2.60
2019-05-06T07:29:52.384Z,3.00
2019-05-06T07:30:52.253Z,4.60
2019-05-06T07:31:53.445Z,6.00
2019-05-06T07:32:52.788Z,5.40
2019-05-06T07:33:52.301Z,4.50
2019-05-06T07:34:53.158Z,5.50
2019-05-06T07:35:53.047Z,2.90
2019-05-06T07:36:52.435Z,4.20
2019-05-06T07:37:53.021Z,6.70
2019-05-06T07:38:52.796Z,4.20
2019-05-06T07:39:52.980Z,2.80
2019-05-06T07:40:52.987Z,4.30
2019-05-06T07:41:53.491Z,3.80
2019-05-06T07:42:52.712Z,3.50
2019-05-06T07:43:52.538Z,3.40
2019-05-06T07:44:52.882Z,3.40
2019-05-06T07:45:53.140Z,3.10
2019-05-06T07:46:52.477Z,4.10
2019-05-06T07:47:53.050Z,3.90
2019-05-06T07:48:51.949Z,2.90
2019-05-06T07:49:53.122Z,4.40
2019-05-06T07:50:52.105Z,3.80
2019-05-06T07:51:52.997Z,3.60
2019-05-06T07:52:52.775Z,4.30
2019-05-06T07:53:52.445Z,2.40
2019-05-06T07:54:53.334Z,2.70
2019-05-06T07:55:52.501Z,5.30
2019-05-06T07:56:52.610Z,4.70
2019-05-06T07:57:52.543Z,4.00
2019-05-06T07:58:52.862Z,3.60
2019-05-06T07:59:52.508Z,3.70
2019-05-06T08:00:52.455Z,3.60
2019-05-06T08:01:53.837Z,4.30
2019-05-06T08:02:52.447Z,3.60
2019-05-06T08:03:53.307Z,3.80
2019-05-06T08:04:53.157Z,6.00
2019-05-06T08:05:57.869Z,2.70
2019-05-06T08:06:52.461Z,4.90
2019-05-06T08:07:55.059Z,3.10
2019-05-06T08:08:53.711Z,4.70
2019-05-06T08:09:52.898Z,2.90
2019-05-06T08:10:52.719Z,2.20
2019-05-06T08:11:53.082Z,1.90
2019-05-06T08:12:52.679Z,3.40
2019-05-06T08:13:52.792Z,4.00
2019-05-06T08:14:52.340Z,2.60
2019-05-06T08:15:53.133Z,2.90
2019-05-06T08:16:53.176Z,5.00
2019-05-06T08:17:52.418Z,3.20
2019-05-06T08:18:52.361Z,5.00
2019-05-06T08:19:52.931Z,5.00
2019-05-06T08:20:51.979Z,2.80
2019-05-06T08:21:52.134Z,3.10
2019-05-06T08:22:52.986Z,2.80
2019-05-06T08:23:52.251Z,3.50
2019-05-06T08:24:53.173Z,3.20
2019-05-06T08:25:54.331Z,3.80
2019-05-06T08:26:52.266Z,2.00
2019-05-06T08:27:53.077Z,4.20
2019-05-06T08:28:52.572Z,7.90
2019-05-06T08:29:52.617Z,2.50
2019-05-06T08:30:53.139Z,4.40
2019-05-06T08:31:52.419Z,4.80
2019-05-06T08:32:52.889Z,5.30
2019-05-06T08:33:52.425Z,3.80
2019-05-06T08:34:52.407Z,3.90
2019-05-06T08:35:53.168Z,2.60
2019-05-06T08:36:53.217Z,2.60
2019-05-06T08:37:52.973Z,2.50
2019-05-06T08:38:53.099Z,3.50
2019-05-06T08:39:52.663Z,2.70
2019-05-06T08:40:52.593Z,1.60
2019-05-06T08:41:52.892Z,2.70
2019-05-06T08:42:53.144Z,2.30
2019-05-06T08:43:52.817Z,3.00
2019-05-06T08:44:52.997Z,1.90
2019-05-06T08:45:52.839Z,2.80
2019-05-06T08:46:53.121Z,1.90
2019-05-06T08:47:52.406Z,2.30
2019-05-06T08:48:52.507Z,2.40
2019-05-06T08:49:52.771Z,2.80
2019-05-06T08:50:52.766Z,3.30
2019-05-06T08:51:52.988Z,3.10
2019-05-06T08:52:52.331Z,2.50
2019-05-06T08:53:52.884Z,3.70
2019-05-06T08:54:52.636Z,3.70
2019-05-06T08:55:52.761Z,2.80
2019-05-06T08:56:52.318Z,4.00
2019-05-06T08:57:52.739Z,2.80
2019-05-06T08:58:52.824Z,2.90
2019-05-06T08:59:50.870Z,2.20
2019-05-06T09:00:53.191Z,3.00
2019-05-06T09:01:53.154Z,8.10
2019-05-06T09:02:52.897Z,1.70
2019-05-06T09:04:07.961Z,5.60
2019-05-06T09:04:51.897Z,4.60
2019-05-06T09:05:52.873Z,2.90
2019-05-06T09:06:53.141Z,2.30
2019-05-06T09:07:52.387Z,7.90
2019-05-06T09:08:52.142Z,2.70
2019-05-06T09:09:52.695Z,3.80
2019-05-06T09:10:52.050Z,4.10
2019-05-06T09:11:53.247Z,2.40
2019-05-06T09:12:52.521Z,4.10
2019-05-06T09:13:52.138Z,2.20
2019-05-06T09:14:53.081Z,2.60
2019-05-06T09:15:52.533Z,3.50
2019-05-06T09:16:53.706Z,3.50
2019-05-06T09:17:52.652Z,2.50
2019-05-06T09:18:53.122Z,4.10
2019-05-06T09:19:53.272Z,3.30
2019-05-06T09:20:50.644Z,3.90
2019-05-06T09:21:53.061Z,3.20
2019-05-06T09:22:52.156Z,2.60
2019-05-06T09:23:52.900Z,2.80
2019-05-06T09:24:52.950Z,4.20
2019-05-06T09:25:52.581Z,3.50
2019-05-06T09:26:52.251Z,2.60
2019-05-06T09:27:52.542Z,4.70
2019-05-06T09:28:52.956Z,2.40
2019-05-06T09:29:52.217Z,3.00
2019-05-06T09:30:52.416Z,3.90
2019-05-06T09:31:52.263Z,4.20
2019-05-06T09:32:52.124Z,2.60
2019-05-06T09:33:50.503Z,2.00
2019-05-06T09:34:52.655Z,2.20
2019-05-06T09:35:52.739Z,3.00
2019-05-06T09:36:52.733Z,3.00
2019-05-06T09:37:50.465Z,2.40
2019-05-06T09:38:52.874Z,3.00
2019-05-06T09:39:50.440Z,2.40
2019-05-06T09:40:52.394Z,4.70
2019-05-06T09:41:50.552Z,4.70
2019-05-06T09:42:52.069Z,2.50
2019-05-06T09:43:52.662Z,2.60
2019-05-06T09:44:51.493Z,4.60
2019-05-06T09:45:52.825Z,3.80
2019-05-06T09:46:50.371Z,4.20
2019-05-06T09:47:52.751Z,3.40
2019-05-06T09:48:52.616Z,3.40
2019-05-06T09:49:52.870Z,1.90
2019-05-06T09:50:50.432Z,2.00
2019-05-06T09:51:52.749Z,2.60
2019-05-06T09:52:52.727Z,2.20
2019-05-06T09:53:50.289Z,4.80
2019-05-06T09:54:50.279Z,4.60
2019-05-06T09:55:52.204Z,2.50
2019-05-06T09:56:50.258Z,2.00
2019-05-06T09:57:52.233Z,1.50
2019-05-06T09:58:52.752Z,2.40
2019-05-06T09:59:50.226Z,2.20
2019-05-06T10:00:50.254Z,2.10
2019-05-06T10:01:52.627Z,3.50
2019-05-06T10:02:52.572Z,2.20
2019-05-06T10:03:50.182Z,3.00
2019-05-06T10:04:52.051Z,3.60
2019-05-06T10:05:50.161Z,1.90
2019-05-06T10:06:57.229Z,3.50
2019-05-06T10:07:52.396Z,2.70
2019-05-06T10:08:50.132Z,3.80
2019-05-06T10:09:52.353Z,2.00
2019-05-06T10:10:56.939Z,2.90
2019-05-06T10:11:52.558Z,2.20
2019-05-06T10:12:50.088Z,2.20
2019-05-06T10:13:52.295Z,1.40
2019-05-06T10:14:50.068Z,1.90
2019-05-06T10:15:51.943Z,2.30
2019-05-06T10:16:52.174Z,1.60
2019-05-06T10:17:52.033Z,1.70
2019-05-06T10:18:52.269Z,2.70
2019-05-06T10:19:50.014Z,3.50
2019-05-06T10:20:50.009Z,1.70
2019-05-06T10:21:49.994Z,2.60
2019-05-06T10:22:51.971Z,2.50
2019-05-06T10:23:49.973Z,3.20
2019-05-06T10:24:52.157Z,4.00
2019-05-06T10:25:52.176Z,3.80
2019-05-06T10:26:52.198Z,4.00
2019-05-06T10:27:49.929Z,2.20
2019-05-06T10:28:52.126Z,1.90
2019-05-06T10:29:52.065Z,3.30
2019-05-06T10:30:49.895Z,2.00
2019-05-06T10:31:49.891Z,3.30
2019-05-06T10:32:49.873Z,1.30
2019-05-06T10:33:49.859Z,2.00
2019-05-06T10:34:49.851Z,2.00
2019-05-06T10:35:49.845Z,2.10
2019-05-06T10:36:49.835Z,1.10
2019-05-06T10:37:49.822Z,1.50
2019-05-06T10:38:49.817Z,2.10
2019-05-06T10:39:52.070Z,3.30
2019-05-06T10:41:00.731Z,1.80
2019-05-06T10:41:50.777Z,1.90
2019-05-06T10:42:52.150Z,2.50
2019-05-06T10:43:49.786Z,2.40
2019-05-06T10:44:49.745Z,2.20
2019-05-06T10:45:51.897Z,3.20
2019-05-06T10:46:49.725Z,1.90
2019-05-06T10:47:49.714Z,3.80
2019-05-06T10:48:49.704Z,3.00
2019-05-06T10:49:49.693Z,2.30
2019-05-06T10:50:49.681Z,3.00
2019-05-06T10:51:49.674Z,2.20
2019-05-06T10:52:51.711Z,3.20
2019-05-06T10:53:49.650Z,2.10
2019-05-06T10:54:49.641Z,2.10
2019-05-06T10:55:49.627Z,2.90
2019-05-06T10:56:53.966Z,3.30
2019-05-06T10:57:52.950Z,2.50
2019-05-06T10:58:49.600Z,1.90
2019-05-06T10:59:49.583Z,2.40
2019-05-06T11:00:49.573Z,3.40
2019-05-06T11:01:49.573Z,3.30
2019-05-06T11:02:49.549Z,2.70
2019-05-06T11:03:49.547Z,3.20
2019-05-06T11:04:49.528Z,2.00
2019-05-06T11:05:49.523Z,2.20
2019-05-06T11:06:49.510Z,1.80
2019-05-06T11:07:49.501Z,2.80
2019-05-06T11:08:49.485Z,1.50
2019-05-06T11:09:49.475Z,1.80
2019-05-06T11:10:49.477Z,1.90
2019-05-06T11:11:49.454Z,2.70
2019-05-06T11:12:49.447Z,3.00
2019-05-06T11:13:49.445Z,2.60
2019-05-06T11:14:49.427Z,2.40
2019-05-06T11:15:49.426Z,2.80
2019-05-06T11:16:49.400Z,2.00
2019-05-06T11:17:49.391Z,1.70
2019-05-06T11:18:49.385Z,2.50
2019-05-06T11:19:49.371Z,3.10
2019-05-06T11:20:49.360Z,1.90
2019-05-06T11:21:49.348Z,3.30
2019-05-06T11:22:49.343Z,2.20
2019-05-06T11:23:49.328Z,3.40
2019-05-06T11:24:49.324Z,2.20
2019-05-06T11:25:49.304Z,2.00
2019-05-06T11:26:49.294Z,1.80
2019-05-06T11:27:49.290Z,1.60
2019-05-06T11:28:49.281Z,2.60
2019-05-06T11:29:49.266Z,2.70
2019-05-06T11:30:49.255Z,1.60
2019-05-06T11:31:49.241Z,1.70
2019-05-06T11:32:49.228Z,1.90
2019-05-06T11:33:49.218Z,2.30
2019-05-06T11:34:49.216Z,1.60
2019-05-06T11:35:49.204Z,1.80
2019-05-06T11:36:49.188Z,1.10
2019-05-06T11:37:51.007Z,1.90
2019-05-06T11:38:49.202Z,2.70
2019-05-06T11:39:49.153Z,2.00
2019-05-06T11:40:49.145Z,1.10
2019-05-06T11:42:01.401Z,3.30
2019-05-06T11:42:52.402Z,1.60
2019-05-06T11:43:49.113Z,1.40
2019-05-06T11:44:49.102Z,2.30
2019-05-06T11:45:49.091Z,3.60
2019-05-06T11:46:49.095Z,1.60
2019-05-06T11:47:49.071Z,2.70
2019-05-06T11:48:49.058Z,1.40
2019-05-06T11:49:49.048Z,1.70
2019-05-06T11:50:49.032Z,1.80
2019-05-06T11:51:49.030Z,2.30
2019-05-06T11:52:49.021Z,2.00
2019-05-06T11:53:49.009Z,3.90
2019-05-06T11:54:48.994Z,1.90
2019-05-06T11:55:48.986Z,3.20
2019-05-06T11:56:52.667Z,3.10
2019-05-06T11:57:49.961Z,2.40
2019-05-06T11:58:48.956Z,1.30
2019-05-06T11:59:48.945Z,1.30
2019-05-06T12:00:48.931Z,1.50
2019-05-06T12:01:48.917Z,1.80
2019-05-06T12:02:49.149Z,2.80
2019-05-06T12:03:48.897Z,2.00
2019-05-06T12:04:48.887Z,3.90
2019-05-06T12:05:48.880Z,2.10
2019-05-06T12:06:48.898Z,2.10
2019-05-06T12:08:03.781Z,2.50
2019-05-06T12:08:49.845Z,2.10
2019-05-06T12:09:48.835Z,2.50
2019-05-06T12:10:48.826Z,2.40
2019-05-06T12:11:48.808Z,3.60
2019-05-06T12:12:48.803Z,4.20
2019-05-06T12:13:48.789Z,3.00
2019-05-06T12:14:48.777Z,1.60
2019-05-06T12:15:48.767Z,2.10
2019-05-06T12:16:48.778Z,1.60
2019-05-06T12:17:48.744Z,2.40
2019-05-06T12:18:48.731Z,3.50
2019-05-06T12:19:48.726Z,1.70
2019-05-06T12:20:48.716Z,2.80
2019-05-06T12:21:48.711Z,3.70
2019-05-06T12:22:48.708Z,3.80
2019-05-06T12:23:48.688Z,1.70
2019-05-06T12:24:48.674Z,2.70
2019-05-06T12:25:48.661Z,2.90
2019-05-06T12:26:48.647Z,2.40
2019-05-06T12:27:48.640Z,3.00
2019-05-06T12:28:48.636Z,2.40
2019-05-06T12:29:48.619Z,2.60
2019-05-06T12:30:48.626Z,3.00
2019-05-06T12:31:48.598Z,1.70
2019-05-06T12:32:48.589Z,1.80
2019-05-06T12:33:48.576Z,1.60
2019-05-06T12:34:48.564Z,1.30
2019-05-06T12:35:48.552Z,2.00
2019-05-06T12:36:48.549Z,4.80
2019-05-06T12:37:48.534Z,3.40
2019-05-06T12:38:48.522Z,1.50
2019-05-06T12:39:48.512Z,2.00
2019-05-06T12:40:48.504Z,2.40
2019-05-06T12:41:48.491Z,1.60
2019-05-06T12:42:48.478Z,2.00
2019-05-06T12:43:48.467Z,2.70
2019-05-06T12:44:48.455Z,2.50
2019-05-06T12:45:48.446Z,2.80
2019-05-06T12:46:48.437Z,2.80
2019-05-06T12:47:48.426Z,3.00
2019-05-06T12:48:48.413Z,1.60
2019-05-06T12:49:48.400Z,3.00
2019-05-06T12:50:48.391Z,3.60
2019-05-06T12:51:48.411Z,1.50
2019-05-06T12:52:48.387Z,2.90
2019-05-06T12:53:48.358Z,3.00
2019-05-06T12:54:48.356Z,2.00
2019-05-06T12:55:48.341Z,4.40
2019-05-06T12:56:48.333Z,1.80
2019-05-06T12:57:48.314Z,1.90
2019-05-06T12:58:48.303Z,2.30
2019-05-06T12:59:48.297Z,3.20
2019-05-06T13:00:48.289Z,2.20
2019-05-06T13:01:48.272Z,1.90
2019-05-06T13:02:48.264Z,1.70
2019-05-06T13:03:48.253Z,3.10
2019-05-06T13:04:56.075Z,1.50
2019-05-06T13:05:49.233Z,2.90
2019-05-06T13:06:48.229Z,1.40
2019-05-06T13:07:48.209Z,2.20
2019-05-06T13:08:58.602Z,2.70
2019-05-06T13:09:49.186Z,2.70
2019-05-06T13:10:48.174Z,4.50
2019-05-06T13:11:48.163Z,3.40
2019-05-06T13:12:48.152Z,3.10
2019-05-06T13:13:57.511Z,1.20
2019-05-06T13:14:49.133Z,3.00
2019-05-06T13:15:48.125Z,2.70
2019-05-06T13:16:48.113Z,2.20